KVPZ/VPZ METAR and TAF weather

Enter ICAO airport designator
Station Type Date Time Source
KVPZ METAR 2019/04/25 17:34 UTC NOAA

KVPZ 251734Z AUTO 20004KT 4SM HZ OVC023 17/09 A2979 RMK AO2 T01670094 PWINO $


Station Type Date Time Source
KVPZ Decoded METAR 2019/04/25 17:34 UTC NOAA

VALPARAISO PORTER CO MUNI, IN, United States (KVPZ) 41-27N 087-00W 231M
Apr 25, 2019 - 01:34 PM EDT / 2019.04.25 1734 UTC
Wind: from the SSW (200 degrees) at 5 MPH (4 KT):0
Visibility: 4 mile(s):0
Sky conditions: overcast
Weather: haze
Temperature: 62.1 F (16.7 C)
Dew Point: 48.9 F (9.4 C)
Relative Humidity: 62%
Pressure (altimeter): 29.79 in. Hg (1008 hPa)
ob: KVPZ 251734Z AUTO 20004KT 4SM HZ OVC023 17/09 A2979 RMK AO2 T01670094 PWINO
cycle: 17

Station Type Date Time Source
KVPZ TAF UTC NOAA

Error!

Example: see airport list